sensor_id;sensor_type;location;lat;lon;timestamp;temperature;humidity
27164;DHT22;14685;50.618;7.024;2024-03-07T00:01:24;10.40;99.90
27164;DHT22;14685;50.618;7.024;2024-03-07T00:03:53;10.40;99.90
27164;DHT22;14685;50.618;7.024;2024-03-07T00:06:21;10.40;99.90
27164;DHT22;14685;50.618;7.024;2024-03-07T00:08:49;10.40;99.90
27164;DHT22;14685;50.618;7.024;2024-03-07T00:11:16;10.40;99.90
27164;DHT22;14685;50.618;7.024;2024-03-07T00:13:44;10.30;99.90
27164;DHT22;14685;50.618;7.024;2024-03-07T00:16:11;10.20;99.90
27164;DHT22;14685;50.618;7.024;2024-03-07T00:18:38;10.10;99.90
27164;DHT22;14685;50.618;7.024;2024-03-07T00:21:05;10.10;99.90
27164;DHT22;14685;50.618;7.024;2024-03-07T00:23:32;10.00;99.90
27164;DHT22;14685;50.618;7.024;2024-03-07T00:26:00;10.00;99.90
27164;DHT22;14685;50.618;7.024;2024-03-07T00:28:27;10.00;99.90
27164;DHT22;14685;50.618;7.024;2024-03-07T00:31:01;10.00;99.90
27164;DHT22;14685;50.618;7.024;2024-03-07T00:33:29;10.00;99.90
27164;DHT22;14685;50.618;7.024;2024-03-07T00:36:16;9.90;99.90
27164;DHT22;14685;50.618;7.024;2024-03-07T00:38:43;9.90;99.90
27164;DHT22;14685;50.618;7.024;2024-03-07T00:41:10;9.90;99.90
27164;DHT22;14685;50.618;7.024;2024-03-07T00:43:39;9.90;99.90
27164;DHT22;14685;50.618;7.024;2024-03-07T00:46:06;9.80;99.90
27164;DHT22;14685;50.618;7.024;2024-03-07T00:48:33;9.80;99.90
27164;DHT22;14685;50.618;7.024;2024-03-07T00:51:00;9.80;99.90
27164;DHT22;14685;50.618;7.024;2024-03-07T00:53:27;9.80;99.90
27164;DHT22;14685;50.618;7.024;2024-03-07T00:55:54;9.90;99.90
27164;DHT22;14685;50.618;7.024;2024-03-07T00:58:23;9.80;99.90
27164;DHT22;14685;50.618;7.024;2024-03-07T01:00:51;9.70;99.90
27164;DHT22;14685;50.618;7.024;2024-03-07T01:03:18;9.60;99.90
27164;DHT22;14685;50.618;7.024;2024-03-07T01:05:46;9.60;99.90
27164;DHT22;14685;50.618;7.024;2024-03-07T01:08:13;9.60;99.90
27164;DHT22;14685;50.618;7.024;2024-03-07T01:25:51;9.30;99.90
27164;DHT22;14685;50.618;7.024;2024-03-07T01:29:24;9.20;99.90
27164;DHT22;14685;50.618;7.024;2024-03-07T01:40:05;9.10;99.90
27164;DHT22;14685;50.618;7.024;2024-03-07T01:47:23;9.00;99.90
27164;DHT22;14685;50.618;7.024;2024-03-07T01:50:42;8.90;99.90
27164;DHT22;14685;50.618;7.024;2024-03-07T01:53:10;8.90;99.90
27164;DHT22;14685;50.618;7.024;2024-03-07T01:55:41;8.90;99.90
27164;DHT22;14685;50.618;7.024;2024-03-07T01:58:09;8.90;99.90
27164;DHT22;14685;50.618;7.024;2024-03-07T02:00:37;8.90;99.90
27164;DHT22;14685;50.618;7.024;2024-03-07T02:03:05;8.90;99.90
27164;DHT22;14685;50.618;7.024;2024-03-07T02:05:34;8.90;99.90
27164;DHT22;14685;50.618;7.024;2024-03-07T02:08:01;8.80;99.90
27164;DHT22;14685;50.618;7.024;2024-03-07T02:10:31;8.80;99.90
27164;DHT22;14685;50.618;7.024;2024-03-07T02:12:58;8.80;99.90
27164;DHT22;14685;50.618;7.024;2024-03-07T02:15:25;8.70;99.90
27164;DHT22;14685;50.618;7.024;2024-03-07T02:17:52;8.70;99.90
27164;DHT22;14685;50.618;7.024;2024-03-07T02:20:19;8.70;99.90
27164;DHT22;14685;50.618;7.024;2024-03-07T02:22:46;8.60;99.90
27164;DHT22;14685;50.618;7.024;2024-03-07T02:25:13;8.60;99.90
27164;DHT22;14685;50.618;7.024;2024-03-07T02:27:42;8.60;99.90
27164;DHT22;14685;50.618;7.024;2024-03-07T02:30:12;8.50;99.90
27164;DHT22;14685;50.618;7.024;2024-03-07T02:32:39;8.50;99.90
27164;DHT22;14685;50.618;7.024;2024-03-07T02:35:07;8.40;99.90
27164;DHT22;14685;50.618;7.024;2024-03-07T02:37:37;8.40;99.90
27164;DHT22;14685;50.618;7.024;2024-03-07T02:40:05;8.40;99.90
27164;DHT22;14685;50.618;7.024;2024-03-07T02:42:32;8.40;99.90
27164;DHT22;14685;50.618;7.024;2024-03-07T02:44:59;8.30;99.90
27164;DHT22;14685;50.618;7.024;2024-03-07T02:47:26;8.30;99.90
27164;DHT22;14685;50.618;7.024;2024-03-07T02:49:55;8.30;99.90
27164;DHT22;14685;50.618;7.024;2024-03-07T02:52:22;8.30;99.90
27164;DHT22;14685;50.618;7.024;2024-03-07T02:54:50;8.20;99.90
27164;DHT22;14685;50.618;7.024;2024-03-07T02:57:17;8.30;99.90
27164;DHT22;14685;50.618;7.024;2024-03-07T02:59:44;8.20;99.90
27164;DHT22;14685;50.618;7.024;2024-03-07T03:02:11;8.20;99.90
27164;DHT22;14685;50.618;7.024;2024-03-07T03:04:38;8.20;99.90
27164;DHT22;14685;50.618;7.024;2024-03-07T03:07:05;8.20;99.90
27164;DHT22;14685;50.618;7.024;2024-03-07T03:09:32;8.10;99.90
27164;DHT22;14685;50.618;7.024;2024-03-07T03:12:00;8.10;99.90
27164;DHT22;14685;50.618;7.024;2024-03-07T03:14:27;8.10;99.90
27164;DHT22;14685;50.618;7.024;2024-03-07T03:16:54;8.10;99.90
27164;DHT22;14685;50.618;7.024;2024-03-07T03:19:23;8.10;99.90
27164;DHT22;14685;50.618;7.024;2024-03-07T03:21:50;8.10;99.90
27164;DHT22;14685;50.618;7.024;2024-03-07T03:24:17;8.10;99.90
27164;DHT22;14685;50.618;7.024;2024-03-07T03:26:44;8.10;99.90
27164;DHT22;14685;50.618;7.024;2024-03-07T03:29:11;8.00;99.90
27164;DHT22;14685;50.618;7.024;2024-03-07T03:31:38;8.00;99.90
27164;DHT22;14685;50.618;7.024;2024-03-07T03:34:06;8.00;99.90
27164;DHT22;14685;50.618;7.024;2024-03-07T03:36:33;8.00;99.90
27164;DHT22;14685;50.618;7.024;2024-03-07T03:39:00;7.90;99.90
27164;DHT22;14685;50.618;7.024;2024-03-07T03:41:30;7.90;99.90
27164;DHT22;14685;50.618;7.024;2024-03-07T03:43:57;7.90;99.90
27164;DHT22;14685;50.618;7.024;2024-03-07T03:46:25;7.90;99.90
27164;DHT22;14685;50.618;7.024;2024-03-07T03:48:52;7.80;99.90
27164;DHT22;14685;50.618;7.024;2024-03-07T03:51:19;7.80;99.90
27164;DHT22;14685;50.618;7.024;2024-03-07T03:53:49;7.80;99.90
27164;DHT22;14685;50.618;7.024;2024-03-07T03:56:16;7.80;99.90
27164;DHT22;14685;50.618;7.024;2024-03-07T03:58:44;7.80;99.90
27164;DHT22;14685;50.618;7.024;2024-03-07T04:01:11;7.80;99.90
27164;DHT22;14685;50.618;7.024;2024-03-07T04:03:41;7.70;99.90
27164;DHT22;14685;50.618;7.024;2024-03-07T04:06:09;7.70;99.90
27164;DHT22;14685;50.618;7.024;2024-03-07T04:08:36;7.70;99.90
27164;DHT22;14685;50.618;7.024;2024-03-07T04:11:04;7.70;99.90
27164;DHT22;14685;50.618;7.024;2024-03-07T04:13:31;7.70;99.90
27164;DHT22;14685;50.618;7.024;2024-03-07T04:15:58;7.60;99.90
27164;DHT22;14685;50.618;7.024;2024-03-07T04:18:26;7.60;99.90
27164;DHT22;14685;50.618;7.024;2024-03-07T04:20:53;7.60;99.90
27164;DHT22;14685;50.618;7.024;2024-03-07T04:23:21;7.60;99.90
27164;DHT22;14685;50.618;7.024;2024-03-07T04:25:48;7.60;99.90
27164;DHT22;14685;50.618;7.024;2024-03-07T04:28:15;7.60;99.90
27164;DHT22;14685;50.618;7.024;2024-03-07T04:30:42;7.50;99.90
27164;DHT22;14685;50.618;7.024;2024-03-07T04:33:09;7.50;99.90
27164;DHT22;14685;50.618;7.024;2024-03-07T04:35:37;7.50;99.90
27164;DHT22;14685;50.618;7.024;2024-03-07T04:38:04;7.40;99.90
27164;DHT22;14685;50.618;7.024;2024-03-07T04:40:37;7.40;99.90
27164;DHT22;14685;50.618;7.024;2024-03-07T04:43:04;7.40;99.90
27164;DHT22;14685;50.618;7.024;2024-03-07T04:45:31;7.40;99.90
27164;DHT22;14685;50.618;7.024;2024-03-07T04:47:59;7.40;99.90
27164;DHT22;14685;50.618;7.024;2024-03-07T04:50:27;7.40;99.90
27164;DHT22;14685;50.618;7.024;2024-03-07T04:52:55;7.40;99.90
27164;DHT22;14685;50.618;7.024;2024-03-07T04:55:21;7.40;99.90
27164;DHT22;14685;50.618;7.024;2024-03-07T04:57:48;7.30;99.90
27164;DHT22;14685;50.618;7.024;2024-03-07T05:00:15;7.30;99.90
27164;DHT22;14685;50.618;7.024;2024-03-07T05:02:48;7.30;99.90
27164;DHT22;14685;50.618;7.024;2024-03-07T05:05:18;7.30;99.90
27164;DHT22;14685;50.618;7.024;2024-03-07T05:07:51;7.30;99.90
27164;DHT22;14685;50.618;7.024;2024-03-07T05:10:18;7.20;99.90
27164;DHT22;14685;50.618;7.024;2024-03-07T05:12:45;7.20;99.90
27164;DHT22;14685;50.618;7.024;2024-03-07T05:15:12;7.20;99.90
27164;DHT22;14685;50.618;7.024;2024-03-07T05:17:39;7.20;99.90
27164;DHT22;14685;50.618;7.024;2024-03-07T05:20:10;7.20;99.90
27164;DHT22;14685;50.618;7.024;2024-03-07T05:22:40;7.20;99.90
27164;DHT22;14685;50.618;7.024;2024-03-07T05:25:07;7.20;99.90
27164;DHT22;14685;50.618;7.024;2024-03-07T05:27:36;7.20;99.90
27164;DHT22;14685;50.618;7.024;2024-03-07T05:30:04;7.20;99.90
27164;DHT22;14685;50.618;7.024;2024-03-07T05:32:37;7.20;99.90
27164;DHT22;14685;50.618;7.024;2024-03-07T05:35:04;7.20;99.90
27164;DHT22;14685;50.618;7.024;2024-03-07T05:37:31;7.20;99.90
27164;DHT22;14685;50.618;7.024;2024-03-07T05:39:58;7.20;99.90
27164;DHT22;14685;50.618;7.024;2024-03-07T05:42:27;7.20;99.90
27164;DHT22;14685;50.618;7.024;2024-03-07T05:44:53;7.20;99.90
27164;DHT22;14685;50.618;7.024;2024-03-07T05:47:21;7.20;99.90
27164;DHT22;14685;50.618;7.024;2024-03-07T05:49:49;7.20;99.90
27164;DHT22;14685;50.618;7.024;2024-03-07T05:52:16;7.10;99.90
27164;DHT22;14685;50.618;7.024;2024-03-07T05:54:43;7.10;99.90
27164;DHT22;14685;50.618;7.024;2024-03-07T05:57:11;7.10;99.90
27164;DHT22;14685;50.618;7.024;2024-03-07T05:59:38;7.10;99.90
27164;DHT22;14685;50.618;7.024;2024-03-07T06:02:06;7.10;99.90
27164;DHT22;14685;50.618;7.024;2024-03-07T06:04:33;7.10;99.90
27164;DHT22;14685;50.618;7.024;2024-03-07T06:07:03;7.10;99.90
27164;DHT22;14685;50.618;7.024;2024-03-07T06:09:32;7.10;99.90
27164;DHT22;14685;50.618;7.024;2024-03-07T06:11:58;7.20;99.90
27164;DHT22;14685;50.618;7.024;2024-03-07T06:14:35;7.30;99.90
27164;DHT22;14685;50.618;7.024;2024-03-07T06:17:04;7.30;99.90
27164;DHT22;14685;50.618;7.024;2024-03-07T06:19:31;7.30;99.90
27164;DHT22;14685;50.618;7.024;2024-03-07T06:21:59;7.40;99.90
27164;DHT22;14685;50.618;7.024;2024-03-07T06:24:27;7.40;99.90
27164;DHT22;14685;50.618;7.024;2024-03-07T06:26:57;7.30;99.90
27164;DHT22;14685;50.618;7.024;2024-03-07T06:29:27;7.20;99.90
27164;DHT22;14685;50.618;7.024;2024-03-07T06:31:55;7.20;99.90
27164;DHT22;14685;50.618;7.024;2024-03-07T06:34:22;7.20;99.90
27164;DHT22;14685;50.618;7.024;2024-03-07T06:36:49;7.30;99.90
27164;DHT22;14685;50.618;7.024;2024-03-07T06:39:16;7.30;99.90
27164;DHT22;14685;50.618;7.024;2024-03-07T06:41:47;7.40;99.90
27164;DHT22;14685;50.618;7.024;2024-03-07T06:44:14;7.40;99.90
27164;DHT22;14685;50.618;7.024;2024-03-07T06:46:41;7.40;99.90
27164;DHT22;14685;50.618;7.024;2024-03-07T06:49:08;7.40;99.90
27164;DHT22;14685;50.618;7.024;2024-03-07T06:51:37;7.40;99.90
27164;DHT22;14685;50.618;7.024;2024-03-07T06:54:06;7.50;99.90
27164;DHT22;14685;50.618;7.024;2024-03-07T06:56:34;7.50;99.90
27164;DHT22;14685;50.618;7.024;2024-03-07T06:59:01;7.50;99.90
27164;DHT22;14685;50.618;7.024;2024-03-07T07:01:32;7.60;99.90
27164;DHT22;14685;50.618;7.024;2024-03-07T07:04:00;7.60;99.90
27164;DHT22;14685;50.618;7.024;2024-03-07T07:06:30;7.70;99.90
27164;DHT22;14685;50.618;7.024;2024-03-07T07:08:58;7.70;99.90
27164;DHT22;14685;50.618;7.024;2024-03-07T07:11:26;7.70;99.90
27164;DHT22;14685;50.618;7.024;2024-03-07T07:14:01;7.70;99.90
27164;DHT22;14685;50.618;7.024;2024-03-07T07:16:31;7.70;99.90
27164;DHT22;14685;50.618;7.024;2024-03-07T07:19:00;7.70;99.90
27164;DHT22;14685;50.618;7.024;2024-03-07T07:21:27;7.70;99.90
27164;DHT22;14685;50.618;7.024;2024-03-07T07:23:54;7.80;99.90
27164;DHT22;14685;50.618;7.024;2024-03-07T07:26:21;7.90;99.90
27164;DHT22;14685;50.618;7.024;2024-03-07T07:28:48;7.90;99.90
27164;DHT22;14685;50.618;7.024;2024-03-07T07:31:15;8.00;99.90
27164;DHT22;14685;50.618;7.024;2024-03-07T07:33:43;8.10;99.90
27164;DHT22;14685;50.618;7.024;2024-03-07T07:36:10;8.20;99.90
27164;DHT22;14685;50.618;7.024;2024-03-07T07:38:38;8.40;99.90
27164;DHT22;14685;50.618;7.024;2024-03-07T07:43:34;8.80;99.90
27164;DHT22;14685;50.618;7.024;2024-03-07T07:46:09;9.00;99.90
27164;DHT22;14685;50.618;7.024;2024-03-07T07:48:36;9.00;99.90
27164;DHT22;14685;50.618;7.024;2024-03-07T07:51:03;9.00;99.90
27164;DHT22;14685;50.618;7.024;2024-03-07T07:53:33;8.90;99.90
27164;DHT22;14685;50.618;7.024;2024-03-07T07:56:00;8.80;99.90
27164;DHT22;14685;50.618;7.024;2024-03-07T07:58:27;8.70;99.90
27164;DHT22;14685;50.618;7.024;2024-03-07T08:00:54;8.90;99.90
27164;DHT22;14685;50.618;7.024;2024-03-07T08:03:21;8.70;99.90
27164;DHT22;14685;50.618;7.024;2024-03-07T08:05:50;8.60;99.90
27164;DHT22;14685;50.618;7.024;2024-03-07T08:08:17;8.60;99.90
27164;DHT22;14685;50.618;7.024;2024-03-07T08:10:45;8.60;99.90
27164;DHT22;14685;50.618;7.024;2024-03-07T08:13:13;8.60;99.90
27164;DHT22;14685;50.618;7.024;2024-03-07T08:15:41;8.70;99.90
27164;DHT22;14685;50.618;7.024;2024-03-07T08:18:09;8.60;99.90
27164;DHT22;14685;50.618;7.024;2024-03-07T08:20:38;8.60;99.90
27164;DHT22;14685;50.618;7.024;2024-03-07T08:23:07;8.70;99.90
27164;DHT22;14685;50.618;7.024;2024-03-07T08:25:34;8.80;99.90
27164;DHT22;14685;50.618;7.024;2024-03-07T08:28:01;9.10;99.90
27164;DHT22;14685;50.618;7.024;2024-03-07T08:30:28;9.50;99.90
27164;DHT22;14685;50.618;7.024;2024-03-07T08:32:57;9.70;99.90
27164;DHT22;14685;50.618;7.024;2024-03-07T08:35:25;9.90;99.90
27164;DHT22;14685;50.618;7.024;2024-03-07T08:37:54;10.00;99.90
27164;DHT22;14685;50.618;7.024;2024-03-07T08:40:26;10.20;99.90
27164;DHT22;14685;50.618;7.024;2024-03-07T08:42:55;10.30;99.90
27164;DHT22;14685;50.618;7.024;2024-03-07T08:45:24;10.40;99.90
27164;DHT22;14685;50.618;7.024;2024-03-07T08:47:53;10.40;99.90
27164;DHT22;14685;50.618;7.024;2024-03-07T08:50:26;10.50;99.90
27164;DHT22;14685;50.618;7.024;2024-03-07T08:52:54;10.30;99.90
27164;DHT22;14685;50.618;7.024;2024-03-07T08:55:24;10.10;99.90
27164;DHT22;14685;50.618;7.024;2024-03-07T08:57:52;10.10;99.90
27164;DHT22;14685;50.618;7.024;2024-03-07T09:00:20;9.90;99.90
27164;DHT22;14685;50.618;7.024;2024-03-07T09:02:58;9.80;99.90
27164;DHT22;14685;50.618;7.024;2024-03-07T09:05:29;10.00;99.90
27164;DHT22;14685;50.618;7.024;2024-03-07T09:08:03;10.10;99.90
27164;DHT22;14685;50.618;7.024;2024-03-07T09:10:30;10.30;99.90
27164;DHT22;14685;50.618;7.024;2024-03-07T09:12:58;10.10;99.90
27164;DHT22;14685;50.618;7.024;2024-03-07T09:15:26;10.00;99.90
27164;DHT22;14685;50.618;7.024;2024-03-07T09:17:54;10.00;99.90
27164;DHT22;14685;50.618;7.024;2024-03-07T09:20:21;10.00;99.90
27164;DHT22;14685;50.618;7.024;2024-03-07T09:22:51;9.90;99.90
27164;DHT22;14685;50.618;7.024;2024-03-07T09:25:22;9.80;99.90
27164;DHT22;14685;50.618;7.024;2024-03-07T09:27:51;9.80;99.90
27164;DHT22;14685;50.618;7.024;2024-03-07T09:30:18;9.80;99.90
27164;DHT22;14685;50.618;7.024;2024-03-07T09:32:51;9.80;99.90
27164;DHT22;14685;50.618;7.024;2024-03-07T09:35:18;9.70;99.90
27164;DHT22;14685;50.618;7.024;2024-03-07T09:37:46;9.70;99.90
27164;DHT22;14685;50.618;7.024;2024-03-07T09:40:13;9.70;99.90
27164;DHT22;14685;50.618;7.024;2024-03-07T09:42:46;9.80;99.90
27164;DHT22;14685;50.618;7.024;2024-03-07T09:45:16;9.90;99.90
27164;DHT22;14685;50.618;7.024;2024-03-07T09:47:46;10.20;99.90
27164;DHT22;14685;50.618;7.024;2024-03-07T09:50:19;10.30;99.90
27164;DHT22;14685;50.618;7.024;2024-03-07T09:52:52;10.40;99.90
27164;DHT22;14685;50.618;7.024;2024-03-07T09:55:21;10.40;99.90
27164;DHT22;14685;50.618;7.024;2024-03-07T09:57:54;10.50;99.90
27164;DHT22;14685;50.618;7.024;2024-03-07T10:00:24;10.50;99.90
27164;DHT22;14685;50.618;7.024;2024-03-07T10:02:58;10.60;99.90
27164;DHT22;14685;50.618;7.024;2024-03-07T10:05:29;10.60;99.90
27164;DHT22;14685;50.618;7.024;2024-03-07T10:07:57;10.70;99.90
27164;DHT22;14685;50.618;7.024;2024-03-07T10:10:24;10.70;99.90
27164;DHT22;14685;50.618;7.024;2024-03-07T10:12:52;10.80;99.90
27164;DHT22;14685;50.618;7.024;2024-03-07T10:15:29;10.80;99.90
27164;DHT22;14685;50.618;7.024;2024-03-07T10:17:56;10.80;99.90
27164;DHT22;14685;50.618;7.024;2024-03-07T10:20:24;11.00;99.90
27164;DHT22;14685;50.618;7.024;2024-03-07T10:22:51;10.80;99.90
27164;DHT22;14685;50.618;7.024;2024-03-07T10:25:20;10.80;99.90
27164;DHT22;14685;50.618;7.024;2024-03-07T10:27:52;10.80;99.90
27164;DHT22;14685;50.618;7.024;2024-03-07T10:30:19;10.80;99.90
27164;DHT22;14685;50.618;7.024;2024-03-07T10:32:58;10.70;99.90
27164;DHT22;14685;50.618;7.024;2024-03-07T10:35:29;10.70;99.90
27164;DHT22;14685;50.618;7.024;2024-03-07T10:37:58;10.70;99.90
27164;DHT22;14685;50.618;7.024;2024-03-07T10:40:34;10.70;99.90
27164;DHT22;14685;50.618;7.024;2024-03-07T10:43:11;10.70;99.90
27164;DHT22;14685;50.618;7.024;2024-03-07T10:45:43;10.80;99.90
27164;DHT22;14685;50.618;7.024;2024-03-07T10:48:13;10.80;99.90
27164;DHT22;14685;50.618;7.024;2024-03-07T10:51:38;10.80;99.90
27164;DHT22;14685;50.618;7.024;2024-03-07T10:59:17;10.80;99.90
27164;DHT22;14685;50.618;7.024;2024-03-07T11:04:42;10.90;99.90
27164;DHT22;14685;50.618;7.024;2024-03-07T11:07:11;10.90;99.90
27164;DHT22;14685;50.618;7.024;2024-03-07T11:09:39;10.90;99.90
27164;DHT22;14685;50.618;7.024;2024-03-07T11:12:09;10.90;99.90
27164;DHT22;14685;50.618;7.024;2024-03-07T11:14:39;10.90;99.90
27164;DHT22;14685;50.618;7.024;2024-03-07T11:17:11;10.90;99.90
27164;DHT22;14685;50.618;7.024;2024-03-07T11:19:45;10.90;99.90
27164;DHT22;14685;50.618;7.024;2024-03-07T11:22:30;11.00;99.90
27164;DHT22;14685;50.618;7.024;2024-03-07T11:25:04;11.00;99.90
27164;DHT22;14685;50.618;7.024;2024-03-07T11:27:37;11.20;99.90
27164;DHT22;14685;50.618;7.024;2024-03-07T11:30:06;11.20;99.90
27164;DHT22;14685;50.618;7.024;2024-03-07T11:32:35;11.40;99.90
27164;DHT22;14685;50.618;7.024;2024-03-07T11:35:05;11.30;99.90
27164;DHT22;14685;50.618;7.024;2024-03-07T11:37:44;11.30;99.90
27164;DHT22;14685;50.618;7.024;2024-03-07T11:42:53;11.20;99.90
27164;DHT22;14685;50.618;7.024;2024-03-07T11:45:20;11.30;99.90
27164;DHT22;14685;50.618;7.024;2024-03-07T11:47:55;11.40;99.90
27164;DHT22;14685;50.618;7.024;2024-03-07T11:50:40;11.30;99.90
27164;DHT22;14685;50.618;7.024;2024-03-07T11:53:09;11.30;99.90
27164;DHT22;14685;50.618;7.024;2024-03-07T11:55:38;11.30;99.90
27164;DHT22;14685;50.618;7.024;2024-03-07T12:00:44;11.40;99.90
27164;DHT22;14685;50.618;7.024;2024-03-07T12:03:16;11.30;99.90
27164;DHT22;14685;50.618;7.024;2024-03-07T12:05:50;11.40;99.90
27164;DHT22;14685;50.618;7.024;2024-03-07T12:08:20;11.30;99.90
27164;DHT22;14685;50.618;7.024;2024-03-07T12:10:52;11.40;99.90
27164;DHT22;14685;50.618;7.024;2024-03-07T12:13:25;11.30;99.90
27164;DHT22;14685;50.618;7.024;2024-03-07T12:15:53;11.30;99.90
27164;DHT22;14685;50.618;7.024;2024-03-07T12:18:23;11.30;99.90
27164;DHT22;14685;50.618;7.024;2024-03-07T12:20:51;11.30;99.90
27164;DHT22;14685;50.618;7.024;2024-03-07T12:23:23;11.30;99.90
27164;DHT22;14685;50.618;7.024;2024-03-07T12:26:03;11.30;99.90
27164;DHT22;14685;50.618;7.024;2024-03-07T12:28:30;11.40;99.90
27164;DHT22;14685;50.618;7.024;2024-03-07T12:31:02;11.40;99.90
27164;DHT22;14685;50.618;7.024;2024-03-07T12:33:30;11.50;99.90
27164;DHT22;14685;50.618;7.024;2024-03-07T12:36:02;11.60;99.90
27164;DHT22;14685;50.618;7.024;2024-03-07T12:38:38;11.60;99.90
27164;DHT22;14685;50.618;7.024;2024-03-07T12:41:10;11.60;99.90
27164;DHT22;14685;50.618;7.024;2024-03-07T12:43:42;11.60;99.90
27164;DHT22;14685;50.618;7.024;2024-03-07T12:46:13;11.60;99.90
27164;DHT22;14685;50.618;7.024;2024-03-07T12:48:42;11.60;99.90
27164;DHT22;14685;50.618;7.024;2024-03-07T12:51:11;11.50;99.90
27164;DHT22;14685;50.618;7.024;2024-03-07T12:53:46;11.60;99.90
27164;DHT22;14685;50.618;7.024;2024-03-07T12:56:13;11.40;99.90
27164;DHT22;14685;50.618;7.024;2024-03-07T12:58:45;11.40;99.90
27164;DHT22;14685;50.618;7.024;2024-03-07T13:01:14;11.40;99.90
27164;DHT22;14685;50.618;7.024;2024-03-07T13:03:41;11.30;99.90
27164;DHT22;14685;50.618;7.024;2024-03-07T13:06:12;11.20;99.90
27164;DHT22;14685;50.618;7.024;2024-03-07T13:08:39;11.30;99.90
27164;DHT22;14685;50.618;7.024;2024-03-07T13:11:08;11.20;99.90
27164;DHT22;14685;50.618;7.024;2024-03-07T13:13:37;11.30;99.90
27164;DHT22;14685;50.618;7.024;2024-03-07T13:16:05;11.40;99.90
27164;DHT22;14685;50.618;7.024;2024-03-07T13:18:32;11.50;99.90
27164;DHT22;14685;50.618;7.024;2024-03-07T13:21:02;11.50;99.90
27164;DHT22;14685;50.618;7.024;2024-03-07T13:23:32;11.50;99.90
27164;DHT22;14685;50.618;7.024;2024-03-07T13:26:01;11.50;99.90
27164;DHT22;14685;50.618;7.024;2024-03-07T13:28:35;11.50;99.90
27164;DHT22;14685;50.618;7.024;2024-03-07T13:31:03;11.40;99.90
27164;DHT22;14685;50.618;7.024;2024-03-07T13:33:30;11.40;99.90
27164;DHT22;14685;50.618;7.024;2024-03-07T13:35:57;11.40;99.90
27164;DHT22;14685;50.618;7.024;2024-03-07T13:38:24;11.40;99.90
27164;DHT22;14685;50.618;7.024;2024-03-07T13:40:53;11.30;99.90
27164;DHT22;14685;50.618;7.024;2024-03-07T13:43:20;11.30;99.90
27164;DHT22;14685;50.618;7.024;2024-03-07T13:45:47;11.40;99.90
27164;DHT22;14685;50.618;7.024;2024-03-07T13:48:15;11.40;99.90
27164;DHT22;14685;50.618;7.024;2024-03-07T13:50:48;11.40;99.90
27164;DHT22;14685;50.618;7.024;2024-03-07T13:53:29;11.50;99.90
27164;DHT22;14685;50.618;7.024;2024-03-07T14:09:33;11.50;99.90
27164;DHT22;14685;50.618;7.024;2024-03-07T14:26:10;11.50;99.90
27164;DHT22;14685;50.618;7.024;2024-03-07T14:28:52;11.50;99.90
27164;DHT22;14685;50.618;7.024;2024-03-07T14:31:23;11.50;99.90
27164;DHT22;14685;50.618;7.024;2024-03-07T14:36:46;11.50;99.90
27164;DHT22;14685;50.618;7.024;2024-03-07T14:39:15;11.50;99.90
27164;DHT22;14685;50.618;7.024;2024-03-07T14:41:58;11.50;99.90
27164;DHT22;14685;50.618;7.024;2024-03-07T14:44:25;11.50;99.90
27164;DHT22;14685;50.618;7.024;2024-03-07T14:47:02;11.40;99.90
27164;DHT22;14685;50.618;7.024;2024-03-07T14:49:34;11.40;99.90
27164;DHT22;14685;50.618;7.024;2024-03-07T14:52:02;11.50;99.90
27164;DHT22;14685;50.618;7.024;2024-03-07T14:54:30;11.50;99.90
27164;DHT22;14685;50.618;7.024;2024-03-07T14:56:58;11.40;99.90
27164;DHT22;14685;50.618;7.024;2024-03-07T14:59:25;11.40;99.90
27164;DHT22;14685;50.618;7.024;2024-03-07T15:01:53;11.30;99.90
27164;DHT22;14685;50.618;7.024;2024-03-07T15:04:20;11.20;99.90
27164;DHT22;14685;50.618;7.024;2024-03-07T15:06:47;11.20;99.90
27164;DHT22;14685;50.618;7.024;2024-03-07T15:09:14;11.30;99.90
27164;DHT22;14685;50.618;7.024;2024-03-07T15:11:43;11.20;99.90
27164;DHT22;14685;50.618;7.024;2024-03-07T15:14:11;11.40;99.90
27164;DHT22;14685;50.618;7.024;2024-03-07T15:16:43;11.10;99.90
27164;DHT22;14685;50.618;7.024;2024-03-07T15:19:11;11.20;99.90
27164;DHT22;14685;50.618;7.024;2024-03-07T15:21:39;11.20;99.90
27164;DHT22;14685;50.618;7.024;2024-03-07T15:24:07;11.20;99.90
27164;DHT22;14685;50.618;7.024;2024-03-07T15:26:34;11.20;99.90
27164;DHT22;14685;50.618;7.024;2024-03-07T15:29:02;11.20;99.90
27164;DHT22;14685;50.618;7.024;2024-03-07T15:31:29;11.30;99.90
27164;DHT22;14685;50.618;7.024;2024-03-07T15:33:58;11.30;99.90
27164;DHT22;14685;50.618;7.024;2024-03-07T15:36:25;11.30;99.90
27164;DHT22;14685;50.618;7.024;2024-03-07T15:38:52;11.20;99.90
27164;DHT22;14685;50.618;7.024;2024-03-07T15:41:20;11.30;99.90
27164;DHT22;14685;50.618;7.024;2024-03-07T15:43:49;11.30;99.90
27164;DHT22;14685;50.618;7.024;2024-03-07T15:46:16;11.30;99.90
27164;DHT22;14685;50.618;7.024;2024-03-07T15:48:45;11.30;99.90
27164;DHT22;14685;50.618;7.024;2024-03-07T15:51:16;11.40;99.90
27164;DHT22;14685;50.618;7.024;2024-03-07T15:53:45;11.30;99.90
27164;DHT22;14685;50.618;7.024;2024-03-07T15:56:12;11.30;99.90
27164;DHT22;14685;50.618;7.024;2024-03-07T15:58:40;11.20;99.90
27164;DHT22;14685;50.618;7.024;2024-03-07T16:01:07;11.20;99.90
27164;DHT22;14685;50.618;7.024;2024-03-07T16:03:34;11.20;99.90
27164;DHT22;14685;50.618;7.024;2024-03-07T16:06:01;11.20;99.90
27164;DHT22;14685;50.618;7.024;2024-03-07T16:08:30;11.30;99.90
27164;DHT22;14685;50.618;7.024;2024-03-07T16:10:59;11.20;99.90
27164;DHT22;14685;50.618;7.024;2024-03-07T16:13:26;11.20;99.90
27164;DHT22;14685;50.618;7.024;2024-03-07T16:15:54;11.20;99.90
27164;DHT22;14685;50.618;7.024;2024-03-07T16:18:21;11.30;99.90
27164;DHT22;14685;50.618;7.024;2024-03-07T16:20:51;11.30;99.90
27164;DHT22;14685;50.618;7.024;2024-03-07T16:23:18;11.30;99.90
27164;DHT22;14685;50.618;7.024;2024-03-07T16:25:45;11.40;99.90
27164;DHT22;14685;50.618;7.024;2024-03-07T16:28:12;11.30;99.90
27164;DHT22;14685;50.618;7.024;2024-03-07T16:30:39;11.30;99.90
27164;DHT22;14685;50.618;7.024;2024-03-07T16:33:12;11.30;99.90
27164;DHT22;14685;50.618;7.024;2024-03-07T16:35:41;11.30;99.90
27164;DHT22;14685;50.618;7.024;2024-03-07T16:38:09;11.30;99.90
27164;DHT22;14685;50.618;7.024;2024-03-07T16:40:36;11.20;99.90
27164;DHT22;14685;50.618;7.024;2024-03-07T16:43:10;11.30;99.90
27164;DHT22;14685;50.618;7.024;2024-03-07T16:45:40;11.20;99.90
27164;DHT22;14685;50.618;7.024;2024-03-07T16:48:08;11.10;99.90
27164;DHT22;14685;50.618;7.024;2024-03-07T16:50:38;11.10;99.90
27164;DHT22;14685;50.618;7.024;2024-03-07T16:53:10;11.10;99.90
27164;DHT22;14685;50.618;7.024;2024-03-07T16:55:38;11.10;99.90
27164;DHT22;14685;50.618;7.024;2024-03-07T16:58:06;11.10;99.90
27164;DHT22;14685;50.618;7.024;2024-03-07T17:00:40;11.10;99.90
27164;DHT22;14685;50.618;7.024;2024-03-07T17:03:11;11.10;99.90
27164;DHT22;14685;50.618;7.024;2024-03-07T17:05:42;11.10;99.90